Briefing drone pour Thones

Rechercher une autre localisation

Conditions de vol :


Nous sommes le : Lundi 30 novembre 2020
Il est 22:52 UTC (23:52 LT)

Lever de soleil : 06:28 UTC (07:28 LT)
Coucher de soleil : 16:18 UTC (17:18 LT)

Météo

L'essentiel des conditions de vol

VIGILANCE MÉTÉO FRANCE - Haute-Savoie (74)
Vigilance Jaune : Neige-verglas
METAR de LFLP
LFLP 302230Z AUTO VRB02KT 9999 OVC020 02/M01 Q1024

Date d'émission: 30/11/2020
Heure d'émission: 22:30 UTC
Vent: Variable 2 KT (4 km/h)
Visibilité horizontale: > 10 km
Plafond :
- Couvert à 2000ft (610m)
Température: 2 °C
Point de rosée: -1 °C
Humidité: 81%
Pression (QNH): 1024 hPa
TAF de LFLP
AMD LFLP 302005Z 3020/0115 CNL

Conditions prévues :

Heure d'émission : Bulletin éffectué le 30 à 20:00 UTC
Prévision : Valide du 30 a 20:00 UTC au 01 a 15:00 UTC
Nuages : à 0ft (0 m)
WEBCAM POUR THONES

Réglementation

Voler en sécurité

CARTES AERONAUTIQUE 1/500.000
CARTES VAC (LFLP)
SUP AIP




Chargement des AIP...
NOTAM (THONES + Terrain à proximité / FIR )




Chargement des NOTAMS...
CONTACT PREFECTURE 74


Avertissement : Les données mises à disposition sont indicatives. Oxygène Drone ne pourra être tenu responsable de dégâts causés aux biens et aux personnes.